Time;durP1;ratioP1;P1;durP2;ratioP2;P2;SDS_P1;SDS_P2;PMS_P1;PMS_P2;Temp;Humidity;BMP_temperature;BMP_pressure;BME280_temperature;BME280_humidity;BME280_pressure;Samples;Min_cycle;Max_cycle;Signal;HPM_P1;HPM_P2
2023/06/28 00:01:36;;;;;;;;;;;20.90;70.80;;;;;;4987265;28;1401;-72
2023/06/28 00:04:03;;;;;;;;;;;20.90;70.80;;;;;;4982854;28;864;-72
2023/06/28 00:06:29;;;;;;;;;;;20.90;70.80;;;;;;4987777;28;1902;-72
2023/06/28 00:08:55;;;;;;;;;;;20.90;70.90;;;;;;4989592;28;1382;-72
2023/06/28 00:11:20;;;;;;;;;;;20.90;70.90;;;;;;4982488;28;830;-72
2023/06/28 00:13:46;;;;;;;;;;;20.80;70.80;;;;;;4982327;28;861;-72
2023/06/28 00:16:14;;;;;;;;;;;20.80;70.80;;;;;;4984859;28;836;-72
2023/06/28 00:18:40;;;;;;;;;;;20.80;70.80;;;;;;4990619;28;854;-72
2023/06/28 00:21:05;;;;;;;;;;;20.80;70.90;;;;;;4987477;28;1258;-72
2023/06/28 00:23:31;;;;;;;;;;;20.90;70.90;;;;;;4988789;28;843;-72
2023/06/28 00:25:57;;;;;;;;;;;20.90;70.90;;;;;;4986954;28;1898;-72
2023/06/28 00:28:23;;;;;;;;;;;20.90;70.90;;;;;;4990582;28;1066;-72
2023/06/28 00:30:48;;;;;;;;;;;20.90;70.90;;;;;;4983214;28;1355;-73
2023/06/28 00:33:19;;;;;;;;;;;20.90;70.90;;;;;;4985130;28;808;-72
2023/06/28 00:35:45;;;;;;;;;;;20.80;70.90;;;;;;4982984;28;848;-71
2023/06/28 00:38:11;;;;;;;;;;;20.90;70.90;;;;;;4982788;28;968;-72
2023/06/28 00:40:36;;;;;;;;;;;20.90;70.90;;;;;;4983682;28;1290;-72
2023/06/28 00:43:02;;;;;;;;;;;20.90;71.00;;;;;;4982781;28;864;-73
2023/06/28 00:45:27;;;;;;;;;;;20.80;70.90;;;;;;4985421;28;1918;-72
2023/06/28 00:47:52;;;;;;;;;;;20.80;70.90;;;;;;4987906;28;898;-72
2023/06/28 00:50:18;;;;;;;;;;;20.90;71.00;;;;;;4989751;28;1315;-73
2023/06/28 00:52:44;;;;;;;;;;;20.80;71.00;;;;;;4987381;28;912;-72
2023/06/28 00:55:10;;;;;;;;;;;20.90;71.00;;;;;;4985228;28;817;-72
2023/06/28 00:57:36;;;;;;;;;;;20.80;71.00;;;;;;4983551;28;922;-72
2023/06/28 01:00:01;;;;;;;;;;;20.90;71.00;;;;;;4984968;28;1242;-72
2023/06/28 01:02:29;;;;;;;;;;;20.80;71.00;;;;;;4983296;28;857;-72
2023/06/28 01:04:57;;;;;;;;;;;20.80;71.00;;;;;;4983087;28;1911;-73
2023/06/28 01:07:24;;;;;;;;;;;20.80;71.00;;;;;;4985214;28;860;-72
2023/06/28 01:09:50;;;;;;;;;;;20.90;71.00;;;;;;4985207;28;1283;-73
2023/06/28 01:12:15;;;;;;;;;;;20.90;71.10;;;;;;4984987;28;951;-72
2023/06/28 01:14:40;;;;;;;;;;;20.90;71.10;;;;;;4983576;28;1073;-71
2023/06/28 01:17:06;;;;;;;;;;;20.80;71.00;;;;;;4986771;28;834;-71
2023/06/28 01:19:32;;;;;;;;;;;20.90;71.10;;;;;;4981506;28;1356;-71
2023/06/28 01:22:01;;;;;;;;;;;20.80;71.00;;;;;;4983427;28;894;-71
2023/06/28 01:24:26;;;;;;;;;;;20.90;71.10;;;;;;4985185;28;1498;-71
2023/06/28 01:26:52;;;;;;;;;;;20.90;71.10;;;;;;4984032;28;1954;-72
2023/06/28 01:29:21;;;;;;;;;;;20.90;71.10;;;;;;4986171;28;1364;-71
2023/06/28 01:31:49;;;;;;;;;;;20.90;71.10;;;;;;4973272;28;1647;-71
2023/06/28 01:34:14;;;;;;;;;;;20.80;71.10;;;;;;4984472;28;810;-71
2023/06/28 01:36:39;;;;;;;;;;;20.90;71.10;;;;;;4987111;28;1073;-71
2023/06/28 01:39:05;;;;;;;;;;;20.90;71.10;;;;;;4982628;28;1253;-71
2023/06/28 01:41:30;;;;;;;;;;;20.90;71.20;;;;;;4980885;28;868;-72
2023/06/28 01:43:56;;;;;;;;;;;20.80;71.10;;;;;;4988469;28;812;-72
2023/06/28 01:46:21;;;;;;;;;;;20.90;71.90;;;;;;4984824;28;1915;-72
2023/06/28 01:48:47;;;;;;;;;;;20.90;71.10;;;;;;4988513;28;866;-73
2023/06/28 01:51:13;;;;;;;;;;;20.90;71.10;;;;;;4979901;28;1225;-72
2023/06/28 01:53:38;;;;;;;;;;;20.90;71.10;;;;;;4985094;28;1548;-73
2023/06/28 01:56:03;;;;;;;;;;;20.90;71.20;;;;;;4988063;28;800;-73
2023/06/28 01:58:29;;;;;;;;;;;20.90;71.20;;;;;;4986823;28;935;-73
2023/06/28 02:00:55;;;;;;;;;;;20.80;71.10;;;;;;4972640;28;1278;-71
2023/06/28 02:03:20;;;;;;;;;;;20.80;71.10;;;;;;4984806;28;1564;-71
2023/06/28 02:05:45;;;;;;;;;;;20.90;71.20;;;;;;4986496;28;1906;-72
2023/06/28 02:08:11;;;;;;;;;;;20.90;71.20;;;;;;4984747;28;971;-72
2023/06/28 02:10:36;;;;;;;;;;;20.80;71.20;;;;;;4989931;28;1362;-71
2023/06/28 02:13:02;;;;;;;;;;;20.90;71.20;;;;;;4992103;28;857;-71
2023/06/28 02:15:27;;;;;;;;;;;20.80;71.20;;;;;;4990862;28;885;-71
2023/06/28 02:17:56;;;;;;;;;;;20.80;71.20;;;;;;4989754;28;950;-71
2023/06/28 02:20:22;;;;;;;;;;;20.80;71.20;;;;;;4989132;28;1348;-71
2023/06/28 02:22:47;;;;;;;;;;;20.80;71.20;;;;;;4993204;28;892;-71
2023/06/28 02:25:12;;;;;;;;;;;20.80;71.20;;;;;;4992138;28;1944;-73
2023/06/28 02:27:38;;;;;;;;;;;20.90;71.20;;;;;;4991101;28;1388;-72
2023/06/28 02:30:04;;;;;;;;;;;20.80;71.20;;;;;;4988306;28;1271;-73
2023/06/28 02:32:30;;;;;;;;;;;20.80;71.20;;;;;;4992270;28;808;-71
2023/06/28 02:34:56;;;;;;;;;;;20.90;71.30;;;;;;4989055;28;1467;-71
2023/06/28 02:37:21;;;;;;;;;;;20.90;71.20;;;;;;4987890;28;1599;-72
2023/06/28 02:39:47;;;;;;;;;;;20.90;71.20;;;;;;4992612;28;1354;-71
2023/06/28 02:42:12;;;;;;;;;;;20.90;71.30;;;;;;5008422;28;1270;-72
2023/06/28 02:44:38;;;;;;;;;;;20.80;71.20;;;;;;4988979;28;1026;-73
2023/06/28 02:47:03;;;;;;;;;;;20.80;71.20;;;;;;4987913;28;1898;-72
2023/06/28 02:49:29;;;;;;;;;;;20.80;71.30;;;;;;4988662;28;1374;-71
2023/06/28 02:51:54;;;;;;;;;;;20.80;71.30;;;;;;4989499;28;917;-71
2023/06/28 02:54:20;;;;;;;;;;;20.80;71.30;;;;;;4986795;28;821;-72
2023/06/28 02:56:45;;;;;;;;;;;20.80;71.30;;;;;;4992983;28;907;-72
2023/06/28 02:59:11;;;;;;;;;;;20.90;71.30;;;;;;4989076;28;1274;-72
2023/06/28 03:01:36;;;;;;;;;;;20.80;71.30;;;;;;4989168;28;904;-72
2023/06/28 03:04:02;;;;;;;;;;;20.90;71.40;;;;;;4989555;28;838;-72
2023/06/28 03:06:27;;;;;;;;;;;20.80;71.30;;;;;;4988164;28;1903;-71
2023/06/28 03:08:53;;;;;;;;;;;20.80;71.30;;;;;;4989048;28;1398;-71
2023/06/28 03:11:18;;;;;;;;;;;20.90;71.40;;;;;;4993785;28;945;-71
2023/06/28 03:13:44;;;;;;;;;;;20.80;71.30;;;;;;4987740;28;899;-71
2023/06/28 03:16:09;;;;;;;;;;;20.90;71.40;;;;;;4992171;28;1050;-72
2023/06/28 03:18:36;;;;;;;;;;;20.80;71.30;;;;;;4992476;28;872;-71
2023/06/28 03:21:01;;;;;;;;;;;20.90;71.40;;;;;;4989555;28;1273;-71
2023/06/28 03:23:26;;;;;;;;;;;20.80;71.30;;;;;;4991302;28;888;-71
2023/06/28 03:25:52;;;;;;;;;;;20.80;71.30;;;;;;4990916;28;1910;-71
2023/06/28 03:28:18;;;;;;;;;;;20.80;71.30;;;;;;4990132;28;1420;-71
2023/06/28 03:30:43;;;;;;;;;;;20.80;71.30;;;;;;4988601;28;1424;-71
2023/06/28 03:33:09;;;;;;;;;;;20.80;71.40;;;;;;4991507;28;878;-71
2023/06/28 03:35:34;;;;;;;;;;;20.80;71.40;;;;;;4985849;28;871;-71
2023/06/28 03:38:00;;;;;;;;;;;20.90;71.50;;;;;;4987285;28;876;-71
2023/06/28 03:40:25;;;;;;;;;;;20.90;71.40;;;;;;4987267;28;1213;-71
2023/06/28 03:42:52;;;;;;;;;;;20.80;71.40;;;;;;4992684;28;831;-71
2023/06/28 03:45:18;;;;;;;;;;;20.90;71.40;;;;;;4988319;28;1982;-71
2023/06/28 03:47:43;;;;;;;;;;;20.90;71.40;;;;;;4984625;28;867;-71
2023/06/28 03:50:09;;;;;;;;;;;20.90;71.40;;;;;;4986771;28;1344;-71
2023/06/28 03:52:35;;;;;;;;;;;20.80;71.40;;;;;;4989440;28;1017;-71
2023/06/28 03:55:00;;;;;;;;;;;20.90;71.50;;;;;;4989711;28;880;-72
2023/06/28 03:57:26;;;;;;;;;;;20.80;71.40;;;;;;4990409;28;1278;-72
2023/06/28 03:59:51;;;;;;;;;;;20.80;71.40;;;;;;4982324;28;1229;-71
2023/06/28 04:02:17;;;;;;;;;;;20.80;71.40;;;;;;4984551;28;1054;-71
2023/06/28 04:04:42;;;;;;;;;;;20.80;71.40;;;;;;4984493;28;1607;-72
2023/06/28 04:07:07;;;;;;;;;;;20.80;71.40;;;;;;4989684;28;1898;-72
2023/06/28 04:09:33;;;;;;;;;;;20.90;71.50;;;;;;4985457;28;1218;-72
2023/06/28 04:11:58;;;;;;;;;;;20.80;71.50;;;;;;4987458;28;1195;-72
2023/06/28 04:14:24;;;;;;;;;;;20.90;71.50;;;;;;4981557;28;1010;-72
2023/06/28 04:16:53;;;;;;;;;;;20.80;71.40;;;;;;4977745;28;887;-71
2023/06/28 04:19:18;;;;;;;;;;;20.80;71.40;;;;;;4979671;28;1224;-72
2023/06/28 04:21:44;;;;;;;;;;;20.80;71.50;;;;;;4984699;28;816;-71
2023/06/28 04:24:09;;;;;;;;;;;20.90;71.50;;;;;;4988861;28;1281;-72
2023/06/28 04:26:35;;;;;;;;;;;20.80;71.50;;;;;;4985660;28;1899;-71
2023/06/28 04:29:00;;;;;;;;;;;20.80;71.50;;;;;;4984682;28;1357;-72
2023/06/28 04:31:26;;;;;;;;;;;20.80;71.50;;;;;;4987177;28;1055;-72
2023/06/28 04:33:55;;;;;;;;;;;20.80;71.50;;;;;;4983454;28;1626;-72
2023/06/28 04:36:21;;;;;;;;;;;20.90;71.50;;;;;;4988385;28;903;-72
2023/06/28 04:38:52;;;;;;;;;;;20.80;71.50;;;;;;4985692;28;884;-71
2023/06/28 04:41:19;;;;;;;;;;;20.80;71.50;;;;;;4985747;28;892;-72
2023/06/28 04:43:44;;;;;;;;;;;20.90;71.60;;;;;;4987924;28;812;-71
2023/06/28 04:46:11;;;;;;;;;;;20.80;71.50;;;;;;4989102;28;1906;-72
2023/06/28 04:48:41;;;;;;;;;;;20.80;71.50;;;;;;4985881;28;880;-71
2023/06/28 04:51:06;;;;;;;;;;;20.80;71.50;;;;;;4989467;28;1296;-72
2023/06/28 04:53:32;;;;;;;;;;;20.80;71.50;;;;;;4984327;28;931;-72
2023/06/28 04:56:00;;;;;;;;;;;20.80;71.50;;;;;;4985529;28;820;-71
2023/06/28 04:58:25;;;;;;;;;;;20.80;71.50;;;;;;4982497;28;1273;-72
2023/06/28 05:00:51;;;;;;;;;;;20.80;71.60;;;;;;4988199;28;1267;-72
2023/06/28 05:03:16;;;;;;;;;;;20.80;71.60;;;;;;4985370;28;857;-72
2023/06/28 05:05:42;;;;;;;;;;;20.80;71.50;;;;;;4987653;28;1922;-72
2023/06/28 05:08:07;;;;;;;;;;;20.80;71.50;;;;;;4982379;28;798;-71
2023/06/28 05:10:33;;;;;;;;;;;20.80;71.50;;;;;;4986332;28;1226;-72
2023/06/28 05:12:59;;;;;;;;;;;20.80;71.60;;;;;;4987311;28;864;-72
2023/06/28 05:15:25;;;;;;;;;;;20.80;71.50;;;;;;4981672;28;1354;-68
2023/06/28 05:17:51;;;;;;;;;;;20.80;71.60;;;;;;4982611;28;2118;-69
2023/06/28 05:20:16;;;;;;;;;;;20.80;71.50;;;;;;4986806;28;1394;-69
2023/06/28 05:22:48;;;;;;;;;;;20.90;71.70;;;;;;4987081;28;1368;-69
2023/06/28 05:25:14;;;;;;;;;;;20.90;71.70;;;;;;4983738;28;1890;-69
2023/06/28 05:27:40;;;;;;;;;;;20.90;71.70;;;;;;4982769;28;1428;-69
2023/06/28 05:30:07;;;;;;;;;;;20.80;71.60;;;;;;4982827;28;1259;-69
2023/06/28 05:32:32;;;;;;;;;;;20.80;71.60;;;;;;4984471;28;793;-69
2023/06/28 05:34:58;;;;;;;;;;;20.90;71.70;;;;;;4985242;28;811;-71
2023/06/28 05:37:23;;;;;;;;;;;20.80;71.60;;;;;;4984017;28;919;-70
2023/06/28 05:39:49;;;;;;;;;;;20.80;70.70;;;;;;4986760;28;1238;-71
2023/06/28 05:42:14;;;;;;;;;;;20.80;69.00;;;;;;4990475;28;895;-71
2023/06/28 05:44:39;;;;;;;;;;;20.80;68.40;;;;;;4984323;28;876;-71
2023/06/28 05:47:05;;;;;;;;;;;20.80;69.20;;;;;;4983521;28;1910;-71
2023/06/28 05:49:31;;;;;;;;;;;20.80;69.10;;;;;;4997172;28;1300;-70
2023/06/28 05:51:57;;;;;;;;;;;20.80;69.10;;;;;;4983188;28;1371;-69
2023/06/28 05:54:22;;;;;;;;;;;20.80;69.10;;;;;;4982040;28;959;-69
2023/06/28 05:56:48;;;;;;;;;;;20.80;69.00;;;;;;4981832;28;1032;-69
2023/06/28 05:59:13;;;;;;;;;;;20.80;68.90;;;;;;4989827;28;1342;-70
2023/06/28 06:01:39;;;;;;;;;;;20.70;68.50;;;;;;4986524;28;892;-70
2023/06/28 06:04:04;;;;;;;;;;;20.80;68.50;;;;;;4985368;28;794;-69
2023/06/28 06:06:30;;;;;;;;;;;20.80;68.90;;;;;;4977977;28;1898;-69
2023/06/28 06:08:55;;;;;;;;;;;20.80;69.30;;;;;;4985655;28;1264;-70
2023/06/28 06:11:20;;;;;;;;;;;20.80;68.70;;;;;;4986779;28;789;-69
2023/06/28 06:13:46;;;;;;;;;;;20.80;68.70;;;;;;4983207;28;895;-69
2023/06/28 06:16:12;;;;;;;;;;;20.80;68.50;;;;;;4983353;28;796;-69
2023/06/28 06:18:40;;;;;;;;;;;20.70;68.20;;;;;;4983004;28;1395;-69
2023/06/28 06:21:05;;;;;;;;;;;20.70;68.60;;;;;;4981838;28;1289;-68
2023/06/28 06:23:31;;;;;;;;;;;20.70;68.10;;;;;;4984756;28;923;-69
2023/06/28 06:25:56;;;;;;;;;;;20.70;68.30;;;;;;4982487;28;1887;-69
2023/06/28 06:28:22;;;;;;;;;;;20.70;67.70;;;;;;4981752;28;844;-69
2023/06/28 06:30:47;;;;;;;;;;;20.70;67.70;;;;;;4979636;28;1366;-69
2023/06/28 06:33:13;;;;;;;;;;;20.70;68.20;;;;;;4982032;28;1643;-69
2023/06/28 06:35:38;;;;;;;;;;;20.70;67.80;;;;;;4981938;28;1194;-70
2023/06/28 06:38:04;;;;;;;;;;;20.70;67.80;;;;;;4985506;28;847;-71
2023/06/28 06:40:29;;;;;;;;;;;20.70;68.10;;;;;;4982870;28;1234;-69
2023/06/28 06:42:54;;;;;;;;;;;20.70;68.10;;;;;;4981505;28;885;-69
2023/06/28 06:45:20;;;;;;;;;;;20.70;67.30;;;;;;4981217;28;1966;-69
2023/06/28 06:47:46;;;;;;;;;;;20.70;67.60;;;;;;4985404;28;976;-68
2023/06/28 06:50:11;;;;;;;;;;;20.70;67.10;;;;;;4978329;28;1186;-67
2023/06/28 06:52:37;;;;;;;;;;;20.70;66.90;;;;;;4985752;28;805;-68
2023/06/28 06:55:03;;;;;;;;;;;20.70;67.10;;;;;;4983814;28;837;-69
2023/06/28 06:57:28;;;;;;;;;;;20.70;66.80;;;;;;4985134;28;1052;-69
2023/06/28 06:59:53;;;;;;;;;;;20.70;67.20;;;;;;4987550;28;1245;-69
2023/06/28 07:02:21;;;;;;;;;;;20.70;66.30;;;;;;4985574;28;947;-69
2023/06/28 07:04:46;;;;;;;;;;;20.70;66.20;;;;;;4988400;28;906;-70
2023/06/28 07:07:12;;;;;;;;;;;20.70;66.50;;;;;;4988215;28;1968;-68
2023/06/28 07:09:37;;;;;;;;;;;20.70;66.10;;;;;;4986398;28;1213;-69
2023/06/28 07:12:03;;;;;;;;;;;20.70;66.00;;;;;;4985290;28;876;-68
2023/06/28 07:14:28;;;;;;;;;;;20.70;66.40;;;;;;4985944;28;1077;-69
2023/06/28 07:16:54;;;;;;;;;;;20.70;65.50;;;;;;4986062;28;801;-69
2023/06/28 07:19:19;;;;;;;;;;;20.70;65.50;;;;;;4987267;28;1972;-68
2023/06/28 07:21:45;;;;;;;;;;;20.70;65.80;;;;;;4987028;28;1356;-69
2023/06/28 07:24:10;;;;;;;;;;;20.70;65.60;;;;;;4991335;28;1383;-68
2023/06/28 07:26:36;;;;;;;;;;;20.70;65.10;;;;;;4991936;28;1910;-69
2023/06/28 07:29:01;;;;;;;;;;;20.70;65.50;;;;;;4987902;28;2267;-69
2023/06/28 07:31:27;;;;;;;;;;;20.70;66.50;;;;;;4989419;28;2073;-69
2023/06/28 07:33:52;;;;;;;;;;;20.60;65.00;;;;;;4989131;28;1124;-69
2023/06/28 07:36:18;;;;;;;;;;;20.70;64.90;;;;;;4990674;28;919;-68
2023/06/28 07:38:43;;;;;;;;;;;20.70;64.80;;;;;;4989124;28;844;-69
2023/06/28 07:41:09;;;;;;;;;;;20.70;64.60;;;;;;4985028;28;1303;-69
2023/06/28 07:43:34;;;;;;;;;;;20.70;64.10;;;;;;4988613;28;809;-69
2023/06/28 07:46:03;;;;;;;;;;;20.60;64.20;;;;;;4984821;28;1973;-69
2023/06/28 07:48:29;;;;;;;;;;;20.70;63.30;;;;;;4984029;28;847;-69
2023/06/28 07:50:55;;;;;;;;;;;20.70;63.50;;;;;;4987503;28;1299;-68
2023/06/28 07:53:20;;;;;;;;;;;20.70;63.70;;;;;;4986087;28;803;-68
2023/06/28 07:55:46;;;;;;;;;;;20.70;64.00;;;;;;4981489;28;879;-68
2023/06/28 07:58:12;;;;;;;;;;;20.70;64.80;;;;;;4986670;28;915;-69
2023/06/28 08:00:37;;;;;;;;;;;20.70;64.80;;;;;;4987012;28;1347;-68
2023/06/28 08:03:02;;;;;;;;;;;20.70;64.60;;;;;;4989233;28;789;-68
2023/06/28 08:05:29;;;;;;;;;;;20.70;64.50;;;;;;4984218;28;1891;-69
2023/06/28 08:07:54;;;;;;;;;;;20.70;64.30;;;;;;4989955;28;911;-69
2023/06/28 08:10:20;;;;;;;;;;;20.70;63.90;;;;;;4981836;28;1308;-69
2023/06/28 08:12:46;;;;;;;;;;;20.70;63.80;;;;;;4987694;28;912;-68
2023/06/28 08:15:11;;;;;;;;;;;20.70;63.70;;;;;;4983593;28;1292;-69
2023/06/28 08:17:37;;;;;;;;;;;20.70;63.60;;;;;;4987423;28;1285;-68
2023/06/28 08:20:02;;;;;;;;;;;20.70;63.90;;;;;;4988766;28;1344;-69
2023/06/28 08:22:28;;;;;;;;;;;20.70;64.00;;;;;;4984974;28;1007;-69
2023/06/28 08:24:53;;;;;;;;;;;20.70;64.20;;;;;;4984821;28;1311;-69
2023/06/28 08:27:19;;;;;;;;;;;20.70;64.00;;;;;;4986846;28;1902;-68
2023/06/28 08:29:44;;;;;;;;;;;20.70;63.90;;;;;;4986239;28;1275;-69
2023/06/28 08:32:10;;;;;;;;;;;20.70;63.80;;;;;;4983457;28;899;-69
2023/06/28 08:34:35;;;;;;;;;;;20.70;63.80;;;;;;4983241;28;951;-69
2023/06/28 08:37:01;;;;;;;;;;;20.70;63.80;;;;;;4986551;28;841;-69
2023/06/28 08:39:26;;;;;;;;;;;20.70;64.20;;;;;;4984897;28;1340;-68
2023/06/28 08:41:52;;;;;;;;;;;20.70;64.10;;;;;;4985269;28;814;-69
2023/06/28 08:44:18;;;;;;;;;;;20.70;64.00;;;;;;4985498;28;2115;-69
2023/06/28 08:46:44;;;;;;;;;;;20.70;64.10;;;;;;5003074;28;1962;-69
2023/06/28 08:49:10;;;;;;;;;;;20.70;64.00;;;;;;4989937;28;1319;-69
2023/06/28 08:51:35;;;;;;;;;;;20.70;64.00;;;;;;4982666;28;1178;-69
2023/06/28 08:54:01;;;;;;;;;;;20.70;63.40;;;;;;4991833;28;1003;-69
2023/06/28 08:56:27;;;;;;;;;;;20.70;63.00;;;;;;4988392;28;797;-69
2023/06/28 08:58:53;;;;;;;;;;;20.70;62.40;;;;;;4998996;28;1333;-69
2023/06/28 09:01:24;;;;;;;;;;;20.70;62.80;;;;;;4986831;28;833;-69
2023/06/28 09:03:50;;;;;;;;;;;20.70;62.80;;;;;;4981692;28;971;-69
2023/06/28 09:06:16;;;;;;;;;;;20.70;63.10;;;;;;4985569;28;1907;-69
2023/06/28 09:08:42;;;;;;;;;;;20.70;63.00;;;;;;4984569;28;868;-69
2023/06/28 09:11:08;;;;;;;;;;;20.70;63.00;;;;;;4984389;28;1273;-69
2023/06/28 09:13:33;;;;;;;;;;;20.70;63.10;;;;;;4985634;28;793;-69
2023/06/28 09:15:59;;;;;;;;;;;20.70;62.90;;;;;;4987172;28;810;-68
2023/06/28 09:18:24;;;;;;;;;;;20.70;62.70;;;;;;4981972;28;847;-69
2023/06/28 09:20:50;;;;;;;;;;;20.70;63.20;;;;;;4983360;28;1273;-68
2023/06/28 09:23:34;;;;;;;;;;;20.70;62.90;;;;;;4987219;28;974;-68
2023/06/28 09:25:59;;;;;;;;;;;20.70;63.20;;;;;;4988829;28;1949;-69
2023/06/28 09:28:34;;;;;;;;;;;20.70;63.40;;;;;;4984686;28;1288;-69
2023/06/28 09:31:00;;;;;;;;;;;20.70;63.40;;;;;;4982676;28;1232;-68
2023/06/28 09:33:25;;;;;;;;;;;20.70;63.20;;;;;;4984315;28;871;-69
2023/06/28 09:35:55;;;;;;;;;;;20.80;63.50;;;;;;4983082;28;1010;-69
2023/06/28 09:38:21;;;;;;;;;;;20.80;63.60;;;;;;4984340;28;908;-69
2023/06/28 09:40:53;;;;;;;;;;;20.80;63.50;;;;;;4979499;28;1233;-69
2023/06/28 09:43:19;;;;;;;;;;;20.70;62.90;;;;;;4983084;28;786;-69
2023/06/28 09:45:44;;;;;;;;;;;20.80;62.90;;;;;;4979330;28;1914;-68
2023/06/28 09:48:09;;;;;;;;;;;20.80;63.10;;;;;;4984797;28;944;-69
2023/06/28 09:50:44;;;;;;;;;;;20.80;63.30;;;;;;4987285;28;1158;-69
2023/06/28 09:53:13;;;;;;;;;;;20.80;62.80;;;;;;4985773;28;1054;-68
2023/06/28 09:55:40;;;;;;;;;;;20.80;62.30;;;;;;4982377;28;871;-69
2023/06/28 09:58:09;;;;;;;;;;;20.80;61.60;;;;;;4983600;28;904;-69
2023/06/28 10:00:35;;;;;;;;;;;20.80;61.40;;;;;;4984707;28;1234;-68
2023/06/28 10:03:01;;;;;;;;;;;20.80;61.50;;;;;;4982635;28;864;-68
2023/06/28 10:05:27;;;;;;;;;;;20.80;61.80;;;;;;4990267;28;1915;-68
2023/06/28 10:07:53;;;;;;;;;;;20.80;61.70;;;;;;4989956;28;882;-68
2023/06/28 10:10:18;;;;;;;;;;;20.80;61.60;;;;;;4983269;28;1271;-68
2023/06/28 10:12:44;;;;;;;;;;;20.80;61.90;;;;;;4987118;28;1026;-68
2023/06/28 10:15:10;;;;;;;;;;;20.80;61.90;;;;;;4985573;28;851;-69
2023/06/28 10:17:36;;;;;;;;;;;20.90;62.40;;;;;;4985799;28;856;-68
2023/06/28 10:20:02;;;;;;;;;;;20.90;62.80;;;;;;4982429;28;1259;-69
2023/06/28 10:22:29;;;;;;;;;;;20.90;62.80;;;;;;4989685;28;836;-68
2023/06/28 10:24:54;;;;;;;;;;;20.90;61.90;;;;;;4989837;28;976;-69
2023/06/28 10:27:20;;;;;;;;;;;20.90;61.80;;;;;;4988527;28;1903;-68
2023/06/28 10:29:48;;;;;;;;;;;20.90;61.00;;;;;;4987276;28;1244;-69
2023/06/28 10:32:13;;;;;;;;;;;20.90;60.90;;;;;;5004356;28;904;-68
2023/06/28 10:34:39;;;;;;;;;;;20.90;61.00;;;;;;4989644;28;882;-68
2023/06/28 10:37:04;;;;;;;;;;;20.90;61.10;;;;;;4987887;28;817;-68
2023/06/28 10:39:31;;;;;;;;;;;20.90;60.40;;;;;;4986697;28;1571;-68
2023/06/28 10:41:57;;;;;;;;;;;21.00;60.30;;;;;;4985975;28;812;-68
2023/06/28 10:44:22;;;;;;;;;;;20.90;60.50;;;;;;4993521;28;832;-68
2023/06/28 10:46:50;;;;;;;;;;;20.90;60.40;;;;;;4987642;28;1966;-68
2023/06/28 10:49:16;;;;;;;;;;;20.90;60.00;;;;;;4988943;28;1236;-69
2023/06/28 10:51:44;;;;;;;;;;;21.00;59.60;;;;;;4988403;28;1101;-68
2023/06/28 10:54:12;;;;;;;;;;;21.00;59.80;;;;;;4984579;28;887;-70
2023/06/28 10:57:00;;;;;;;;;;;21.00;59.70;;;;;;4988381;28;840;-69
2023/06/28 10:59:25;;;;;;;;;;;21.00;60.80;;;;;;4987416;28;1244;-70
2023/06/28 11:01:53;;;;;;;;;;;21.00;59.90;;;;;;4990966;28;1346;-70
2023/06/28 11:04:22;;;;;;;;;;;21.00;60.10;;;;;;4989475;28;1045;-69
2023/06/28 11:06:48;;;;;;;;;;;21.00;60.60;;;;;;4990442;28;1957;-69
2023/06/28 11:09:17;;;;;;;;;;;20.90;60.30;;;;;;4985868;28;1924;-69
2023/06/28 11:11:49;;;;;;;;;;;21.00;59.80;;;;;;4991988;28;1531;-69
2023/06/28 11:14:21;;;;;;;;;;;21.00;60.20;;;;;;4989764;28;1201;-69
2023/06/28 11:16:48;;;;;;;;;;;21.00;60.50;;;;;;4986085;28;949;-69
2023/06/28 11:19:14;;;;;;;;;;;21.00;60.00;;;;;;4985541;28;1269;-68
2023/06/28 11:21:39;;;;;;;;;;;21.00;59.90;;;;;;4986661;28;894;-68
2023/06/28 11:24:05;;;;;;;;;;;21.00;59.90;;;;;;5002698;28;1279;-68
2023/06/28 11:26:31;;;;;;;;;;;21.00;59.70;;;;;;4992087;28;1966;-69
2023/06/28 11:28:56;;;;;;;;;;;21.00;60.00;;;;;;4990471;28;1271;-69
2023/06/28 11:31:25;;;;;;;;;;;21.00;59.80;;;;;;4989578;28;896;-68
2023/06/28 11:33:54;;;;;;;;;;;21.00;59.40;;;;;;4988907;28;801;-69
2023/06/28 11:36:22;;;;;;;;;;;21.00;59.50;;;;;;4989215;28;1207;-69
2023/06/28 11:38:47;;;;;;;;;;;21.00;60.80;;;;;;4984218;28;945;-69
2023/06/28 11:41:13;;;;;;;;;;;21.00;60.50;;;;;;4984552;28;1227;-69
2023/06/28 11:43:39;;;;;;;;;;;21.00;60.20;;;;;;4984159;28;947;-69
2023/06/28 11:46:04;;;;;;;;;;;21.00;59.80;;;;;;4987287;28;1969;-69
2023/06/28 11:48:30;;;;;;;;;;;21.00;60.40;;;;;;4984215;28;970;-69
2023/06/28 11:50:58;;;;;;;;;;;21.00;60.30;;;;;;4984033;28;1289;-69
2023/06/28 11:53:25;;;;;;;;;;;21.00;60.30;;;;;;4984606;28;834;-69
2023/06/28 11:55:53;;;;;;;;;;;21.00;60.70;;;;;;4990835;28;916;-69
2023/06/28 11:58:32;;;;;;;;;;;21.00;60.00;;;;;;4987330;28;966;-69
2023/06/28 12:00:58;;;;;;;;;;;21.00;59.70;;;;;;4983066;28;1273;-69
2023/06/28 12:03:30;;;;;;;;;;;21.00;60.20;;;;;;4986177;28;821;-69
2023/06/28 12:05:55;;;;;;;;;;;21.00;60.30;;;;;;4991175;28;1952;-68
2023/06/28 12:08:21;;;;;;;;;;;21.00;60.50;;;;;;4987230;28;971;-69
2023/06/28 12:10:46;;;;;;;;;;;21.00;60.50;;;;;;4986381;28;1268;-68
2023/06/28 12:13:22;;;;;;;;;;;21.00;60.80;;;;;;4987281;28;1045;-69
2023/06/28 12:15:48;;;;;;;;;;;21.00;60.10;;;;;;4985594;28;903;-69
2023/06/28 12:18:13;;;;;;;;;;;21.00;60.00;;;;;;4984084;28;908;-68
2023/06/28 12:20:39;;;;;;;;;;;21.00;60.10;;;;;;4986467;28;1409;-69
2023/06/28 12:23:10;;;;;;;;;;;21.00;59.90;;;;;;4986286;28;954;-69
2023/06/28 12:25:35;;;;;;;;;;;21.00;59.80;;;;;;4986322;28;1903;-67
2023/06/28 12:28:02;;;;;;;;;;;21.00;60.20;;;;;;4986814;28;1692;-67
2023/06/28 12:30:28;;;;;;;;;;;21.00;61.10;;;;;;4981831;28;1295;-68
2023/06/28 12:32:55;;;;;;;;;;;21.00;60.00;;;;;;4986069;28;887;-70
2023/06/28 12:35:22;;;;;;;;;;;21.00;60.50;;;;;;4986710;28;896;-69
2023/06/28 12:37:51;;;;;;;;;;;21.00;61.10;;;;;;4985132;28;873;-70
2023/06/28 12:40:17;;;;;;;;;;;21.00;60.00;;;;;;4986045;28;1249;-70
2023/06/28 12:42:43;;;;;;;;;;;21.00;60.00;;;;;;4983682;28;823;-69
2023/06/28 12:45:09;;;;;;;;;;;21.00;60.50;;;;;;4986730;28;1902;-69
2023/06/28 12:47:34;;;;;;;;;;;21.00;60.50;;;;;;4988609;28;832;-69
2023/06/28 12:50:00;;;;;;;;;;;21.00;61.00;;;;;;4985317;28;1280;-69
2023/06/28 12:52:26;;;;;;;;;;;21.00;60.10;;;;;;4989415;28;879;-69
2023/06/28 12:54:52;;;;;;;;;;;21.10;59.90;;;;;;4981406;28;833;-69
2023/06/28 12:57:18;;;;;;;;;;;21.00;59.60;;;;;;4983600;28;818;-69
2023/06/28 12:59:43;;;;;;;;;;;21.10;59.50;;;;;;4984178;28;1273;-69
2023/06/28 13:02:09;;;;;;;;;;;21.00;59.80;;;;;;4989924;28;907;-69
2023/06/28 13:04:34;;;;;;;;;;;21.10;59.80;;;;;;4983831;28;876;-69
2023/06/28 13:07:00;;;;;;;;;;;21.00;60.70;;;;;;4986120;28;1902;-69
2023/06/28 13:09:26;;;;;;;;;;;21.00;60.20;;;;;;4984617;28;2185;-69
2023/06/28 13:11:52;;;;;;;;;;;21.10;59.70;;;;;;4984367;28;1150;-69
2023/06/28 13:14:17;;;;;;;;;;;21.10;59.30;;;;;;4989419;28;1364;-69
2023/06/28 13:16:43;;;;;;;;;;;21.10;59.00;;;;;;4986889;28;1335;-69
2023/06/28 13:19:08;;;;;;;;;;;21.10;59.00;;;;;;4983332;28;1287;-69
2023/06/28 13:21:34;;;;;;;;;;;21.10;59.20;;;;;;4982985;28;1084;-69
2023/06/28 13:23:59;;;;;;;;;;;21.20;58.90;;;;;;4985598;28;865;-69
2023/06/28 13:26:25;;;;;;;;;;;21.20;58.80;;;;;;4982653;28;1902;-69
2023/06/28 13:28:50;;;;;;;;;;;21.20;58.50;;;;;;4986590;28;1406;-69
2023/06/28 13:31:16;;;;;;;;;;;21.20;58.50;;;;;;4988618;28;1301;-69
2023/06/28 13:33:41;;;;;;;;;;;21.20;58.20;;;;;;4984646;28;900;-68
2023/06/28 13:36:07;;;;;;;;;;;21.20;58.10;;;;;;4984497;28;2110;-68
2023/06/28 13:38:32;;;;;;;;;;;21.20;57.90;;;;;;4983005;28;1415;-69
2023/06/28 13:40:57;;;;;;;;;;;21.20;57.90;;;;;;4979914;28;1487;-68
2023/06/28 13:43:23;;;;;;;;;;;21.20;58.20;;;;;;4985129;28;885;-68
2023/06/28 13:45:48;;;;;;;;;;;21.20;58.20;;;;;;4985980;28;1918;-68
2023/06/28 13:48:14;;;;;;;;;;;21.20;58.20;;;;;;4983782;28;824;-68
2023/06/28 13:50:40;;;;;;;;;;;21.20;58.20;;;;;;4984742;28;1287;-68
2023/06/28 13:53:05;;;;;;;;;;;21.20;58.60;;;;;;4981986;28;909;-69
2023/06/28 13:55:31;;;;;;;;;;;21.20;58.60;;;;;;4985796;28;884;-70
2023/06/28 13:57:57;;;;;;;;;;;21.20;57.90;;;;;;4985858;28;1265;-69
2023/06/28 14:00:22;;;;;;;;;;;21.20;58.00;;;;;;4980043;28;1303;-69
2023/06/28 14:02:48;;;;;;;;;;;21.20;58.10;;;;;;4983053;28;861;-69
2023/06/28 14:05:14;;;;;;;;;;;21.20;58.10;;;;;;4982510;28;1891;-69
2023/06/28 14:07:39;;;;;;;;;;;21.20;58.20;;;;;;4985865;28;808;-69
2023/06/28 14:10:06;;;;;;;;;;;21.30;58.00;;;;;;4982247;28;1270;-69
2023/06/28 14:12:31;;;;;;;;;;;21.20;57.90;;;;;;4985168;28;881;-69
2023/06/28 14:14:57;;;;;;;;;;;21.20;58.00;;;;;;4973626;28;820;-69
2023/06/28 14:17:22;;;;;;;;;;;21.20;58.00;;;;;;4985193;28;851;-69
2023/06/28 14:19:48;;;;;;;;;;;21.20;58.60;;;;;;4983163;28;1331;-69
2023/06/28 14:22:13;;;;;;;;;;;21.20;57.80;;;;;;4987366;28;867;-69
2023/06/28 14:24:39;;;;;;;;;;;21.30;58.90;;;;;;4984069;28;1262;-69
2023/06/28 14:27:04;;;;;;;;;;;21.20;58.40;;;;;;4985250;28;1962;-69
2023/06/28 14:29:30;;;;;;;;;;;21.20;57.90;;;;;;4987718;28;1281;-69